Time;durP1;ratioP1;P1;durP2;ratioP2;P2;SDS_P1;SDS_P2;PMS_P1;PMS_P2;Temp;Humidity;BMP_temperature;BMP_pressure;BME280_temperature;BME280_humidity;BME280_pressure;Samples;Min_cycle;Max_cycle;Signal;HPM_P1;HPM_P2
2023/02/27 00:00:50;;;;;;;8.48;3.42;;;;;;;2.89;100.00;102968.16;10582417;28;20036;-69
2023/02/27 00:05:50;;;;;;;2.88;2.17;;;;;;;2.89;100.00;102963.66;10585133;28;20027;-69
2023/02/27 00:10:51;;;;;;;5.53;2.80;;;;;;;2.83;100.00;102972.06;10588196;28;20035;-69
2023/02/27 00:15:52;;;;;;;6.30;2.30;;;;;;;2.85;100.00;102980.00;10589097;28;20471;-68
2023/02/27 00:20:53;;;;;;;3.38;2.17;;;;;;;2.84;100.00;102983.63;10589014;28;20108;-69
2023/02/27 00:25:54;;;;;;;2.67;2.30;;;;;;;2.81;100.00;102971.31;10571675;28;20484;-69
2023/02/27 00:30:54;;;;;;;4.90;2.15;;;;;;;2.82;100.00;102973.03;10593324;28;20041;-69
2023/02/27 00:35:59;;;;;;;7.10;1.60;;;;;;;2.82;100.00;102970.34;10588772;28;20061;-69
2023/02/27 00:40:59;;;;;;;2.55;1.70;;;;;;;2.75;99.36;102966.34;10569991;28;20048;-68
2023/02/27 00:46:00;;;;;;;3.90;2.10;;;;;;;2.66;98.67;102965.09;10587359;28;20049;-69
2023/02/27 00:51:00;;;;;;;6.20;2.03;;;;;;;2.63;97.11;102967.94;10586549;28;20055;-69
2023/02/27 00:56:01;;;;;;;1.63;1.50;;;;;;;2.58;96.02;102962.00;10568707;28;20035;-68
2023/02/27 01:01:01;;;;;;;6.40;2.47;;;;;;;2.53;95.39;102962.31;10587279;28;20531;-68
2023/02/27 01:06:02;;;;;;;3.80;1.50;;;;;;;2.36;95.88;102969.63;10585735;28;20039;-69
2023/02/27 01:11:02;;;;;;;4.13;1.23;;;;;;;2.20;96.15;102959.00;10585078;28;20172;-69
2023/02/27 01:16:03;;;;;;;1.83;1.42;;;;;;;2.12;96.02;102962.16;10587828;28;20038;-69
2023/02/27 01:21:04;;;;;;;1.42;1.33;;;;;;;2.15;96.20;102959.28;10587881;28;20031;-69
2023/02/27 01:26:04;;;;;;;2.55;1.70;;;;;;;2.27;96.21;102961.22;10586824;28;20055;-68
2023/02/27 01:31:04;;;;;;;7.57;1.67;;;;;;;2.19;95.56;102960.81;10586102;28;20481;-69
2023/02/27 01:36:05;;;;;;;3.40;1.65;;;;;;;2.09;95.36;102952.50;10585778;28;20526;-68
2023/02/27 01:41:06;;;;;;;6.75;1.48;;;;;;;1.92;95.68;102949.13;10567628;28;20051;-68
2023/02/27 01:46:06;;;;;;;3.72;2.13;;;;;;;1.72;95.51;102955.63;10585465;28;20055;-68
2023/02/27 01:51:10;;;;;;;5.43;1.88;;;;;;;1.57;96.50;102949.38;10601154;27;20036;-68
2023/02/27 01:56:20;;;;;;;2.15;1.67;;;;;;;1.56;97.62;102953.84;10551695;28;20077;-69
2023/02/27 02:01:20;;;;;;;2.55;1.52;;;;;;;1.53;98.01;102947.81;10587645;28;20344;-69
2023/02/27 02:06:21;;;;;;;3.70;2.55;;;;;;;1.54;98.03;102955.75;10585000;28;20059;-69
2023/02/27 02:11:21;;;;;;;6.20;2.03;;;;;;;1.58;97.98;102959.94;10582914;28;20060;-69
2023/02/27 02:16:44;;;;;;;3.05;1.83;;;;;;;1.55;98.23;102960.13;10565609;28;20034;-69
2023/02/27 02:21:53;;;;;;;9.73;1.95;;;;;;;1.45;97.71;102958.09;10583064;28;20028;-68
2023/02/27 02:27:32;;;;;;;5.63;2.33;;;;;;;1.30;98.17;102958.00;10581497;28;20505;-68
2023/02/27 02:32:53;;;;;;;4.70;1.63;;;;;;;1.11;97.86;102958.16;10562087;28;20092;-69
2023/02/27 02:37:57;;;;;;;1.63;1.52;;;;;;;0.80;97.51;102951.00;10584225;28;20027;-68
2023/02/27 02:43:08;;;;;;;6.60;2.67;;;;;;;0.51;97.16;102949.03;10585402;28;20509;-69
2023/02/27 02:48:27;;;;;;;2.95;1.48;;;;;;;0.31;97.15;102961.59;10583162;28;20066;-69
2023/02/27 02:53:38;;;;;;;2.35;2.22;;;;;;;0.14;98.10;102964.28;10581929;28;20377;-68
2023/02/27 02:58:59;;;;;;;8.32;1.77;;;;;;;0.00;98.52;102965.00;10582092;28;20035;-69
2023/02/27 03:04:16;;;;;;;17.98;2.05;;;;;;;-0.10;98.07;102963.72;10581506;28;20039;-69
2023/02/27 03:09:32;;;;;;;;;;;;;;;-0.18;98.25;102957.94;10581882;28;20031;-68
2023/02/27 03:14:42;;;;;;;1.80;1.77;;;;;;;-0.32;98.18;102961.25;10582546;28;19959;-68
2023/02/27 03:19:46;;;;;;;3.88;2.42;;;;;;;-0.48;98.74;102961.16;10564018;28;20058;-69
2023/02/27 03:24:49;;;;;;;4.40;2.08;;;;;;;-0.62;98.06;102968.97;10564012;28;20118;-69
2023/02/27 03:29:56;;;;;;;2.22;1.88;;;;;;;-0.69;98.75;102975.53;10582222;28;20161;-69
2023/02/27 03:34:57;;;;;;;6.85;1.58;;;;;;;-0.78;98.63;102975.00;10598278;28;20058;-68
2023/02/27 03:40:24;;;;;;;8.73;2.20;;;;;;;-0.83;99.41;102970.84;10584678;28;20108;-68
2023/02/27 03:45:53;;;;;;;3.35;2.30;;;;;;;-0.95;98.17;102974.97;10570104;27;20035;-68
2023/02/27 03:50:54;;;;;;;5.60;1.73;;;;;;;-1.09;99.35;102972.91;10588487;28;20035;-68
2023/02/27 03:55:55;;;;;;;6.38;1.95;;;;;;;-1.11;100.00;102968.63;10588108;28;20360;-68
2023/02/27 04:00:55;;;;;;;4.55;2.58;;;;;;;-1.08;100.00;102961.38;10605926;27;20031;-68
2023/02/27 04:07:21;;;;;;;3.00;1.67;;;;;;;-1.09;100.00;102969.41;10588510;28;20071;-69
2023/02/27 04:11:32;;;;;;;2.50;1.85;;;;;;;-1.11;99.82;102971.28;10590263;28;20024;-68
2023/02/27 04:16:45;;;;;;;2.60;2.40;;;;;;;-1.07;100.00;102979.03;10577193;28;20460;-69
2023/02/27 04:22:07;;;;;;;7.07;1.67;;;;;;;-1.10;99.99;102978.31;10575804;28;20027;-69
2023/02/27 04:27:32;;;;;;;6.05;2.10;;;;;;;-1.15;100.00;102985.63;10590615;28;20047;-68
2023/02/27 04:32:54;;;;;;;4.80;2.65;;;;;;;-1.21;99.75;102995.63;10588171;28;20052;-68
2023/02/27 04:38:03;;;;;;;3.78;2.67;;;;;;;-1.29;100.00;102989.78;10588362;28;20027;-68
2023/02/27 04:43:05;;;;;;;3.03;2.53;;;;;;;-1.40;100.00;102997.41;10587336;28;20027;-68
2023/02/27 04:48:25;;;;;;;11.07;3.38;;;;;;;-1.42;100.00;103009.88;10594926;28;20032;-69
2023/02/27 04:53:29;;;;;;;10.57;2.72;;;;;;;-1.35;100.00;103000.69;10604331;27;20451;-68
2023/02/27 04:58:35;;;;;;;6.35;2.30;;;;;;;-1.43;100.00;102997.53;10586193;28;20032;-68
2023/02/27 05:03:38;;;;;;;6.05;2.88;;;;;;;-1.48;100.00;103015.47;10569441;28;20471;-69
2023/02/27 05:08:47;;;;;;;3.78;2.67;;;;;;;-1.46;100.00;103011.81;10586927;28;20039;-68
2023/02/27 05:14:11;;;;;;;2.72;2.53;;;;;;;-1.39;100.00;103028.34;10588588;28;20080;-68
2023/02/27 05:19:11;;;;;;;5.93;2.60;;;;;;;-1.46;100.00;103030.41;10552335;28;20456;-68
2023/02/27 05:24:35;;;;;;;2.97;2.75;;;;;;;-1.47;100.00;103023.38;10568182;28;20036;-68
2023/02/27 05:29:48;;;;;;;3.03;2.83;;;;;;;-1.46;100.00;103021.59;10602257;27;20483;-69
2023/02/27 05:35:03;;;;;;;5.18;2.95;;;;;;;-1.50;100.00;103023.50;10602301;27;20383;-69
2023/02/27 05:40:07;;;;;;;6.72;2.83;;;;;;;-1.56;100.00;103033.50;10568252;28;20051;-68
2023/02/27 05:45:14;;;;;;;8.40;3.33;;;;;;;-1.62;100.00;103023.19;10585498;28;20028;-68
2023/02/27 05:50:19;;;;;;;4.53;3.03;;;;;;;-1.69;100.00;103026.09;10584924;28;20160;-68
2023/02/27 05:55:29;;;;;;;12.65;4.03;;;;;;;-1.72;100.00;103026.22;10569185;28;20051;-68
2023/02/27 06:00:42;;;;;;;6.93;3.50;;;;;;;-1.78;100.00;103034.47;10567057;28;20085;-68
2023/02/27 06:05:42;;;;;;;5.05;4.38;;;;;;;-1.77;100.00;103038.81;10566974;28;20020;-68
2023/02/27 06:10:43;;;;;;;3.92;3.58;;;;;;;-1.75;100.00;103039.63;10566365;28;20032;-68
2023/02/27 06:15:44;;;;;;;5.57;3.33;;;;;;;-1.71;100.00;103043.03;10582495;28;20027;-68
2023/02/27 06:20:44;;;;;;;5.43;2.90;;;;;;;-1.70;100.00;103044.75;10582284;28;20046;-67
2023/02/27 06:25:45;;;;;;;3.55;2.78;;;;;;;-1.61;100.00;103052.31;10582482;28;20406;-67
2023/02/27 06:30:46;;;;;;;8.13;3.50;;;;;;;-1.58;100.00;103059.31;10583125;28;20043;-68
2023/02/27 06:35:47;;;;;;;11.00;3.83;;;;;;;-1.48;100.00;103068.59;10585315;28;20123;-68
2023/02/27 06:40:49;;;;;;;5.63;4.15;;;;;;;-1.21;100.00;103079.84;10570267;28;20042;-68
2023/02/27 06:45:53;;;;;;;7.40;3.17;;;;;;;-1.09;100.00;103075.75;10584859;28;20379;-68
2023/02/27 06:50:55;;;;;;;3.92;3.20;;;;;;;-0.94;100.00;103072.41;10582040;28;20028;-68
2023/02/27 06:55:55;;;;;;;9.38;4.40;;;;;;;-0.84;100.00;103081.69;10549107;28;20023;-68
2023/02/27 07:00:58;;;;;;;14.50;4.60;;;;;;;-0.82;100.00;103086.97;10585000;28;20042;-67
2023/02/27 07:05:59;;;;;;;5.60;3.20;;;;;;;-0.80;100.00;103088.63;10581203;28;20102;-67
2023/02/27 07:10:59;;;;;;;6.30;3.50;;;;;;;-0.79;100.00;103095.66;10580445;28;20076;-68
2023/02/27 07:16:00;;;;;;;5.68;2.72;;;;;;;-0.74;100.00;103100.75;10597511;27;20122;-68
2023/02/27 07:21:00;;;;;;;7.05;3.83;;;;;;;-0.49;100.00;103112.00;10582318;28;20031;-68
2023/02/27 07:26:00;;;;;;;4.10;3.70;;;;;;;-0.05;100.00;103110.84;10582016;28;20056;-68
2023/02/27 07:31:01;;;;;;;7.43;3.63;;;;;;;1.03;100.00;103112.47;10581543;28;20036;-68
2023/02/27 07:36:01;;;;;;;4.20;3.90;;;;;;;2.43;100.00;103110.06;10581070;28;20114;-68
2023/02/27 07:41:02;;;;;;;7.85;4.68;;;;;;;2.50;100.00;103114.94;10581876;28;20070;-68
2023/02/27 07:46:02;;;;;;;7.40;5.13;;;;;;;3.06;100.00;103114.28;10581620;28;20164;-68
2023/02/27 07:51:03;;;;;;;7.03;4.38;;;;;;;4.78;100.00;103110.19;10580186;28;20114;-68
2023/02/27 07:56:03;;;;;;;5.07;3.42;;;;;;;5.94;100.00;103106.47;10579743;28;20119;-68
2023/02/27 08:01:04;;;;;;;4.90;3.72;;;;;;;6.40;100.00;103102.19;10581659;28;20054;-68
2023/02/27 08:06:05;;;;;;;5.88;3.15;;;;;;;6.80;100.00;103083.84;10579923;28;20039;-69
2023/02/27 08:11:05;;;;;;;5.45;3.40;;;;;;;6.78;100.00;103096.56;10581517;28;20032;-68
2023/02/27 08:16:06;;;;;;;7.07;2.92;;;;;;;6.87;100.00;103095.84;10581090;28;20473;-68
2023/02/27 08:21:07;;;;;;;5.78;2.92;;;;;;;7.48;100.00;103098.22;10580580;28;20080;-69
2023/02/27 08:26:07;;;;;;;7.53;3.53;;;;;;;8.08;98.86;103106.84;10583632;28;20549;-69
2023/02/27 08:31:07;;;;;;;5.68;2.72;;;;;;;8.21;97.06;103106.66;10553624;28;20032;-69
2023/02/27 08:36:08;;;;;;;6.97;2.55;;;;;;;8.21;95.64;103102.13;10588592;28;20077;-69
2023/02/27 08:41:09;;;;;;;4.25;2.50;;;;;;;8.87;92.15;103107.38;10590176;27;20088;-69
2023/02/27 08:46:10;;;;;;;5.93;2.35;;;;;;;9.36;90.60;103118.47;10589336;28;20124;-69
2023/02/27 08:51:10;;;;;;;4.63;2.03;;;;;;;9.11;74.41;103123.28;10586864;28;20071;-69
2023/02/27 08:56:10;;;;;;;5.30;2.35;;;;;;;8.85;80.90;103125.56;10571024;28;20050;-69
2023/02/27 09:01:11;;;;;;;7.28;2.50;;;;;;;8.91;73.49;103132.28;10587815;28;20118;-69
2023/02/27 09:06:11;;;;;;;6.20;1.77;;;;;;;8.94;72.22;103135.56;10587624;28;20126;-69
2023/02/27 09:11:11;;;;;;;4.43;3.03;;;;;;;9.17;72.75;103130.03;10570188;28;20126;-69
2023/02/27 09:16:12;;;;;;;3.50;2.40;;;;;;;9.74;75.24;103133.97;10587795;28;20071;-69
2023/02/27 09:21:13;;;;;;;2.55;2.08;;;;;;;9.92;70.02;103139.56;10585877;28;20070;-69
2023/02/27 09:26:13;;;;;;;3.08;2.35;;;;;;;10.09;64.28;103133.50;10551370;28;20043;-69
2023/02/27 09:31:16;;;;;;;7.80;1.77;;;;;;;9.85;59.46;103141.13;10585020;28;20070;-69
2023/02/27 09:36:16;;;;;;;7.72;2.50;;;;;;;10.09;67.60;103138.91;10584924;28;20085;-69
2023/02/27 09:41:41;;;;;;;9.95;1.67;;;;;;;10.48;56.28;103149.81;10586672;27;20410;-69
2023/02/27 09:46:41;;;;;;;3.25;2.05;;;;;;;9.50;56.15;103140.56;10584284;28;20373;-69
2023/02/27 09:51:41;;;;;;;2.60;1.70;;;;;;;9.42;57.52;103155.78;10585321;28;20039;-69
2023/02/27 09:56:51;;;;;;;7.30;2.88;;;;;;;9.27;60.40;103148.00;10583256;28;20036;-69
2023/02/27 10:01:56;;;;;;;3.28;1.20;;;;;;;9.34;56.69;103151.03;10566190;28;20042;-69
2023/02/27 10:07:15;;;;;;;4.60;1.75;;;;;;;9.54;57.89;103144.72;10567676;28;20111;-69
2023/02/27 10:12:22;;;;;;;2.42;1.67;;;;;;;9.81;62.80;103151.38;10568547;28;20051;-69
2023/02/27 10:17:24;;;;;;;;;;;;;;;9.49;59.11;103141.56;10586076;28;20027;-69
2023/02/27 10:22:35;;;;;;;2.58;2.17;;;;;;;9.22;60.82;103149.38;10582505;28;19919;-69
2023/02/27 10:27:35;;;;;;;5.63;2.80;;;;;;;8.39;60.16;103140.22;10583295;28;20051;-69
2023/02/27 10:32:36;;;;;;;5.80;2.22;;;;;;;7.97;61.26;103155.41;10565384;28;20356;-69
2023/02/27 10:37:38;;;;;;;4.40;2.88;;;;;;;6.41;68.83;103146.94;10565761;28;20024;-68
2023/02/27 10:42:39;;;;;;;4.65;2.53;;;;;;;6.29;73.85;103152.28;10566458;28;20031;-68
2023/02/27 10:47:39;;;;;;;2.42;1.63;;;;;;;7.41;64.88;103154.47;10582361;28;20454;-69
2023/02/27 10:52:50;;;;;;;7.43;2.00;;;;;;;6.67;69.25;103148.53;10584021;28;20063;-69
2023/02/27 10:57:51;;;;;;;5.78;1.58;;;;;;;7.78;63.08;103134.47;10583857;28;20360;-69
2023/02/27 11:02:51;;;;;;;5.63;2.63;;;;;;;8.60;60.68;103137.59;10564704;28;20036;-68
2023/02/27 11:07:52;;;;;;;1.60;1.40;;;;;;;10.48;62.69;103114.63;10581868;28;20514;-69
2023/02/27 11:13:03;;;;;;;3.40;2.40;;;;;;;11.64;49.24;103121.59;10565364;28;20059;-69
2023/02/27 11:18:20;;;;;;;3.88;2.03;;;;;;;11.39;45.47;103112.28;10566143;28;20036;-69
2023/02/27 11:23:22;;;;;;;1.75;1.55;;;;;;;10.41;45.67;103108.91;10601192;28;20031;-68
2023/02/27 11:28:25;;;;;;;4.47;1.77;;;;;;;10.22;45.47;103106.16;10581329;28;20056;-68
2023/02/27 11:33:26;;;;;;;1.60;1.10;;;;;;;10.12;44.47;103102.59;10581787;28;20380;-69
2023/02/27 11:38:28;;;;;;;1.65;1.55;;;;;;;8.67;46.73;103089.31;10564951;28;20032;-69
2023/02/27 11:43:29;;;;;;;2.35;1.45;;;;;;;8.38;47.80;103096.19;10562795;28;20030;-68
2023/02/27 11:48:40;;;;;;;3.20;1.60;;;;;;;8.95;47.93;103083.22;10581830;28;20043;-69
2023/02/27 11:54:33;;;;;;;3.80;1.30;;;;;;;8.68;49.72;103075.69;10562978;28;20438;-69
2023/02/27 11:59:57;;;;;;;1.48;1.38;;;;;;;7.65;50.31;103076.13;10492675;28;20116;-68
2023/02/27 12:05:28;;;;;;;3.30;1.55;;;;;;;7.63;54.50;103083.50;10579409;28;20047;-69
2023/02/27 12:10:48;;;;;;;3.45;1.73;;;;;;;7.99;49.91;103076.06;10586170;28;20104;-68
2023/02/27 12:15:56;;;;;;;1.23;1.20;;;;;;;7.39;49.87;103074.69;10575091;28;20032;-68
2023/02/27 12:20:59;;;;;;;4.47;1.73;;;;;;;7.14;51.61;103075.78;10587641;28;20478;-69
2023/02/27 12:26:03;;;;;;;3.13;2.08;;;;;;;8.67;47.93;103070.41;10570100;28;20391;-68
2023/02/27 12:31:25;;;;;;;5.70;1.70;;;;;;;8.76;46.93;103070.47;10570667;28;20036;-69
2023/02/27 12:36:26;;;;;;;1.25;1.20;;;;;;;9.17;44.83;103049.78;10587077;28;20034;-69
2023/02/27 12:41:35;;;;;;;1.63;1.20;;;;;;;9.44;43.39;103051.84;10588621;28;20038;-68
2023/02/27 12:46:51;;;;;;;3.47;1.63;;;;;;;9.95;43.08;103047.28;10588870;28;20032;-68
2023/02/27 12:52:29;;;;;;;7.55;1.20;;;;;;;10.47;43.29;103037.06;10588456;28;20031;-68
2023/02/27 12:57:38;;;;;;;3.17;1.38;;;;;;;9.47;48.77;103040.75;10580743;28;20360;-69
2023/02/27 13:02:45;;;;;;;3.03;1.30;;;;;;;8.20;46.29;103038.34;10586850;28;20132;-69
2023/02/27 13:08:12;;;;;;;5.32;1.40;;;;;;;7.99;50.63;103051.78;10586614;28;20031;-69
2023/02/27 13:13:52;;;;;;;1.48;1.38;;;;;;;9.96;51.91;103035.47;10586247;28;20035;-69
2023/02/27 13:18:58;;;;;;;7.32;2.05;;;;;;;10.28;48.76;103026.25;10581861;28;20092;-69
2023/02/27 13:24:21;;;;;;;0.95;0.75;;;;;;;8.91;43.26;103038.56;10567973;28;20078;-69
2023/02/27 13:29:22;;;;;;;3.50;1.52;;;;;;;8.58;44.03;103042.31;10586851;27;20137;-68
2023/02/27 13:34:27;;;;;;;2.92;1.63;;;;;;;8.71;44.50;103029.50;10586653;28;20133;-69
2023/02/27 13:39:44;;;;;;;3.78;1.55;;;;;;;9.24;43.67;103025.75;10602334;27;20460;-68
2023/02/27 13:44:44;;;;;;;2.63;1.15;;;;;;;9.16;44.13;103033.72;10586300;28;20383;-69
2023/02/27 13:49:45;;;;;;;1.80;0.90;;;;;;;8.73;45.60;103040.16;10586819;28;20040;-69
2023/02/27 13:54:45;;;;;;;5.43;1.65;;;;;;;8.24;46.48;103038.94;10585386;28;20042;-69
2023/02/27 14:00:07;;;;;;;1.33;1.23;;;;;;;9.55;43.76;103021.16;10583590;28;20031;-68
2023/02/27 14:05:09;;;;;;;2.08;1.23;;;;;;;9.12;45.36;103014.19;10566422;28;20034;-69
2023/02/27 14:10:10;;;;;;;0.93;0.90;;;;;;;8.03;46.54;103037.03;10582872;28;20486;-68
2023/02/27 14:15:16;;;;;;;2.00;1.75;;;;;;;7.03;49.23;103040.78;10582971;28;20042;-68
2023/02/27 14:20:23;;;;;;;1.40;1.30;;;;;;;7.50;51.61;103039.66;10584173;28;20028;-69
2023/02/27 14:25:29;;;;;;;2.67;1.52;;;;;;;8.59;48.76;103042.22;10581686;28;20467;-68
2023/02/27 14:30:41;;;;;;;7.75;1.83;;;;;;;8.57;47.89;103037.91;10564988;28;20100;-69
2023/02/27 14:35:46;;;;;;;2.15;1.73;;;;;;;7.87;49.64;103042.84;10583904;28;20073;-68
2023/02/27 14:41:14;;;;;;;1.75;1.45;;;;;;;7.24;51.67;103039.03;10582110;28;20527;-69
2023/02/27 14:46:23;;;;;;;11.23;2.63;;;;;;;8.04;50.75;103027.09;10566877;28;20153;-68
2023/02/27 14:51:24;;;;;;;3.58;1.63;;;;;;;8.30;51.68;103030.31;10581890;28;20114;-68
2023/02/27 14:56:24;;;;;;;1.45;1.35;;;;;;;7.64;52.04;103043.91;10565601;28;20118;-68
2023/02/27 15:01:26;;;;;;;1.95;1.20;;;;;;;7.21;53.69;103029.38;10582568;28;20043;-68
2023/02/27 15:06:42;;;;;;;1.65;1.42;;;;;;;6.80;55.16;103029.13;10581137;28;20030;-69
2023/02/27 15:11:43;;;;;;;2.65;2.25;;;;;;;7.38;56.59;103029.84;10581768;28;20039;-69
2023/02/27 15:16:43;;;;;;;2.50;1.20;;;;;;;7.35;56.20;103012.09;10580816;28;20038;-68
2023/02/27 15:21:48;;;;;;;3.85;2.38;;;;;;;6.92;55.65;103015.56;10581755;28;20055;-69
2023/02/27 15:26:51;;;;;;;1.25;1.23;;;;;;;6.57;58.85;103030.91;10582468;28;20058;-72
2023/02/27 15:31:51;;;;;;;5.97;2.78;;;;;;;6.49;60.96;103026.97;10582962;28;20047;-69
2023/02/27 15:36:53;;;;;;;5.22;1.65;;;;;;;6.51;61.66;103026.88;10553260;28;20118;-69
2023/02/27 15:42:01;;;;;;;2.55;2.35;;;;;;;6.54;62.00;103026.63;10573289;28;20073;-69
2023/02/27 15:47:02;;;;;;;4.55;1.63;;;;;;;6.30;63.25;103021.28;10591678;28;20084;-69
2023/02/27 15:52:15;;;;;;;1.00;1.00;;;;;;;6.28;64.56;103013.31;10571708;28;20027;-69
2023/02/27 15:57:16;;;;;;;5.65;1.40;;;;;;;6.27;65.98;103035.84;10591459;28;20030;-68
2023/02/27 16:02:28;;;;;;;5.57;1.50;;;;;;;6.28;66.70;103034.84;10555087;28;20194;-69
2023/02/27 16:07:29;;;;;;;0.68;0.68;;;;;;;6.23;66.49;103031.66;10588366;28;20111;-68
2023/02/27 16:12:35;;;;;;;1.20;1.10;;;;;;;6.12;67.49;103031.59;10588354;28;20059;-68
2023/02/27 16:17:36;;;;;;;3.77;1.37;;;;;;;5.99;70.37;103034.38;10589040;28;20072;-69
2023/02/27 16:22:56;;;;;;;1.40;1.40;;;;;;;5.91;71.90;103031.38;10586818;28;20368;-68
2023/02/27 16:27:56;;;;;;;1.83;1.67;;;;;;;5.88;71.46;103030.75;10589144;28;20529;-69
2023/02/27 16:33:00;;;;;;;3.08;2.33;;;;;;;5.78;72.56;103030.56;10586549;28;20077;-68
2023/02/27 16:38:01;;;;;;;3.15;2.03;;;;;;;5.63;73.91;103032.56;10588740;28;20028;-68
2023/02/27 16:43:01;;;;;;;2.17;1.65;;;;;;;5.44;75.63;103038.41;10588715;28;20035;-69
2023/02/27 16:48:02;;;;;;;1.10;1.10;;;;;;;5.24;77.21;103042.53;10586925;28;20470;-68
2023/02/27 16:53:02;;;;;;;2.15;1.80;;;;;;;5.08;76.77;103032.03;10588787;28;20043;-69
2023/02/27 16:58:03;;;;;;;5.03;2.00;;;;;;;4.92;77.23;103046.66;10587259;28;20046;-69
2023/02/27 17:03:03;;;;;;;5.00;1.48;;;;;;;4.71;80.76;103041.81;10587787;28;20042;-69
2023/02/27 17:08:04;;;;;;;2.40;1.95;;;;;;;4.62;80.54;103032.56;10585871;28;20035;-69
2023/02/27 17:13:05;;;;;;;1.30;1.20;;;;;;;4.46;82.63;103039.09;10585041;28;20191;-69
2023/02/27 17:18:05;;;;;;;2.88;1.83;;;;;;;4.44;80.92;103039.22;10588372;28;20123;-69
2023/02/27 17:23:08;;;;;;;2.30;1.85;;;;;;;4.24;82.43;103042.38;10585443;28;20043;-68
2023/02/27 17:28:09;;;;;;;3.80;1.88;;;;;;;4.15;85.23;103052.78;10568021;28;20055;-68
2023/02/27 17:33:09;;;;;;;1.83;1.33;;;;;;;4.10;85.43;103059.41;10568839;28;20035;-68
2023/02/27 17:38:09;;;;;;;1.95;1.85;;;;;;;4.01;88.87;103066.22;10585275;28;20039;-68
2023/02/27 17:43:10;;;;;;;3.17;1.70;;;;;;;3.95;87.13;103062.13;10585967;28;20054;-70
2023/02/27 17:48:11;;;;;;;2.25;1.45;;;;;;;3.83;87.17;103071.00;10585704;28;20065;-69
2023/02/27 17:53:13;;;;;;;3.15;1.73;;;;;;;3.79;86.79;103084.69;10585755;28;20035;-69
2023/02/27 17:58:15;;;;;;;2.08;1.52;;;;;;;3.77;87.33;103083.94;10585358;28;20036;-68
2023/02/27 18:03:16;;;;;;;2.58;1.35;;;;;;;3.73;87.81;103089.50;10566890;28;20391;-68
2023/02/27 18:08:17;;;;;;;5.15;2.10;;;;;;;3.63;86.44;103093.69;10584938;27;20027;-69
2023/02/27 18:13:17;;;;;;;2.45;1.98;;;;;;;3.53;88.59;103087.22;10584754;28;20027;-68
2023/02/27 18:18:18;;;;;;;2.75;1.52;;;;;;;3.43;87.67;103097.66;10549207;28;20043;-68
2023/02/27 18:23:18;;;;;;;3.25;1.80;;;;;;;3.27;87.05;103094.22;10584043;28;20039;-68
2023/02/27 18:28:19;;;;;;;5.53;2.05;;;;;;;3.18;86.90;103102.81;10582120;28;20054;-69
2023/02/27 18:33:19;;;;;;;3.75;1.83;;;;;;;3.13;88.53;103105.81;10583516;28;20058;-68
2023/02/27 18:38:20;;;;;;;3.90;2.28;;;;;;;3.08;88.17;103104.34;10584036;28;20115;-68
2023/02/27 18:43:20;;;;;;;2.35;2.20;;;;;;;2.95;87.60;103110.44;10582159;28;20027;-68
2023/02/27 18:48:20;;;;;;;2.47;1.90;;;;;;;2.83;89.20;103108.53;10583391;28;20043;-68
2023/02/27 18:53:21;;;;;;;2.67;2.03;;;;;;;2.92;90.17;103116.00;10584203;28;20036;-69
2023/02/27 18:58:21;;;;;;;3.22;2.17;;;;;;;2.84;89.19;103110.25;10583164;28;20379;-68
2023/02/27 19:03:22;;;;;;;2.15;1.95;;;;;;;2.73;88.86;103107.34;10581335;28;20050;-68
2023/02/27 19:08:27;;;;;;;3.83;2.40;;;;;;;2.63;88.79;103120.41;10580931;28;20122;-69
2023/02/27 19:13:28;;;;;;;5.07;3.00;;;;;;;2.56;89.16;103119.06;10583094;28;20054;-69
2023/02/27 19:18:28;;;;;;;13.82;2.60;;;;;;;2.55;89.46;103120.88;10583046;28;20104;-69
2023/02/27 19:23:29;;;;;;;3.90;2.38;;;;;;;2.43;90.36;103126.94;10582404;28;20043;-68
2023/02/27 19:28:29;;;;;;;3.28;2.35;;;;;;;2.39;91.04;103125.38;10580875;28;20395;-68
2023/02/27 19:33:30;;;;;;;5.72;1.92;;;;;;;2.32;91.35;103124.88;10581039;28;20039;-68
2023/02/27 19:38:30;;;;;;;2.65;2.22;;;;;;;2.26;91.37;103130.59;10563545;28;20031;-69
2023/02/27 19:43:30;;;;;;;2.33;2.15;;;;;;;2.19;90.99;103139.06;10581661;28;20059;-68
2023/02/27 19:48:31;;;;;;;1.85;1.75;;;;;;;2.08;90.25;103145.88;10580589;28;20057;-69
2023/02/27 19:53:32;;;;;;;2.75;1.95;;;;;;;2.00;89.93;103137.41;10580389;28;20036;-68
2023/02/27 19:58:33;;;;;;;3.30;2.63;;;;;;;1.91;91.47;103143.28;10563891;28;20046;-67
2023/02/27 20:03:34;;;;;;;5.05;2.75;;;;;;;1.88;91.05;103137.25;10579867;28;20096;-67
2023/02/27 20:08:34;;;;;;;4.40;2.05;;;;;;;1.80;92.25;103140.38;10583678;28;20081;-68
2023/02/27 20:13:35;;;;;;;2.63;1.92;;;;;;;1.80;91.06;103137.69;10581830;28;20471;-69
2023/02/27 20:18:35;;;;;;;3.63;3.15;;;;;;;1.78;92.23;103139.56;10584159;28;20060;-75
2023/02/27 20:23:37;;;;;;;3.47;2.25;;;;;;;1.72;92.21;103134.56;10586813;28;20028;-72
2023/02/27 20:28:38;;;;;;;2.75;2.55;;;;;;;1.65;92.35;103128.69;10588979;27;20047;-72
2023/02/27 20:33:39;;;;;;;3.78;3.47;;;;;;;1.61;93.34;103133.34;10588319;28;20448;-71
2023/02/27 20:38:39;;;;;;;5.13;2.90;;;;;;;1.63;93.03;103135.97;10586311;28;20463;-72
2023/02/27 20:43:43;;;;;;;7.43;3.10;;;;;;;1.62;93.94;103131.53;10586865;28;20468;-72
2023/02/27 20:48:43;;;;;;;7.40;3.25;;;;;;;1.60;93.89;103130.78;10555361;28;20035;-71
2023/02/27 20:53:46;;;;;;;3.83;3.05;;;;;;;1.54;93.94;103131.97;10588877;28;20035;-71
2023/02/27 20:58:46;;;;;;;5.38;2.90;;;;;;;1.53;94.99;103135.59;10588821;28;20496;-71
2023/02/27 21:03:49;;;;;;;3.28;2.88;;;;;;;1.49;95.01;103139.38;10587042;28;20032;-71
2023/02/27 21:08:52;;;;;;;3.35;3.15;;;;;;;1.55;96.52;103141.69;10570209;28;20037;-71
2023/02/27 21:13:53;;;;;;;7.68;4.05;;;;;;;1.60;97.42;103138.78;10569468;28;20372;-71
2023/02/27 21:18:55;;;;;;;3.65;3.35;;;;;;;1.60;98.10;103145.00;10587043;28;20027;-71
2023/02/27 21:23:56;;;;;;;4.35;3.67;;;;;;;1.51;97.47;103142.81;10585932;28;20089;-71
2023/02/27 21:28:58;;;;;;;4.30;3.35;;;;;;;1.30;95.83;103146.63;10585752;28;20101;-71
2023/02/27 21:34:00;;;;;;;4.40;3.92;;;;;;;1.12;96.14;103149.34;10585749;28;20065;-72
2023/02/27 21:39:02;;;;;;;4.30;3.90;;;;;;;1.10;96.87;103150.38;10550804;28;20037;-72
2023/02/27 21:44:05;;;;;;;7.75;3.42;;;;;;;1.06;96.87;103156.81;10585825;28;20540;-73
2023/02/27 21:49:05;;;;;;;4.85;3.42;;;;;;;1.03;96.82;103148.97;10584509;28;20031;-73
2023/02/27 21:54:07;;;;;;;4.38;3.70;;;;;;;0.94;97.27;103150.31;10568757;28;20027;-73
2023/02/27 21:59:08;;;;;;;8.43;3.17;;;;;;;0.91;97.27;103147.78;10583794;28;20027;-72
2023/02/27 22:04:09;;;;;;;3.58;3.10;;;;;;;0.87;97.43;103156.91;10583630;28;20024;-72
2023/02/27 22:09:09;;;;;;;7.68;3.97;;;;;;;0.83;97.26;103168.66;10584177;28;20036;-72
2023/02/27 22:14:10;;;;;;;7.07;3.78;;;;;;;0.90;98.66;103162.94;10584715;28;20108;-72
2023/02/27 22:19:12;;;;;;;4.53;3.35;;;;;;;0.85;98.25;103166.78;10586768;28;20063;-72
2023/02/27 22:24:13;;;;;;;7.70;4.13;;;;;;;0.83;99.29;103160.66;10567138;28;20352;-72
2023/02/27 22:29:13;;;;;;;6.30;3.47;;;;;;;0.81;99.25;103157.22;10582806;28;20063;-72
2023/02/27 22:34:18;;;;;;;7.18;4.50;;;;;;;0.77;98.83;103171.66;10584322;28;20081;-72
2023/02/27 22:39:18;;;;;;;7.93;4.68;;;;;;;0.69;99.10;103180.88;10565744;28;20459;-72
2023/02/27 22:44:19;;;;;;;4.82;4.15;;;;;;;0.63;99.12;103175.00;10582745;28;20028;-72
2023/02/27 22:49:20;;;;;;;6.72;4.15;;;;;;;0.57;98.61;103173.50;10583335;28;20031;-72
2023/02/27 22:54:21;;;;;;;4.55;3.90;;;;;;;0.52;99.10;103177.34;10583097;28;20051;-72
2023/02/27 22:59:22;;;;;;;4.35;3.88;;;;;;;0.53;99.80;103179.06;10564569;28;20032;-72
2023/02/27 23:04:22;;;;;;;4.10;3.70;;;;;;;0.65;100.00;103170.47;10582856;28;20485;-72
2023/02/27 23:09:24;;;;;;;5.90;4.18;;;;;;;0.74;100.00;103177.16;10583834;28;20043;-72
2023/02/27 23:14:24;;;;;;;4.15;3.83;;;;;;;0.71;100.00;103175.50;10566432;28;20068;-72
2023/02/27 23:19:24;;;;;;;6.05;4.65;;;;;;;0.73;100.00;103178.06;10581995;28;20031;-72
2023/02/27 23:24:25;;;;;;;7.25;4.20;;;;;;;0.62;100.00;103178.63;10581826;28;20473;-72
2023/02/27 23:29:25;;;;;;;3.03;2.80;;;;;;;0.61;100.00;103180.44;10583276;28;20055;-72